createdAt,value
2023-04-09T00:01:06.755Z,13.27
2023-04-09T00:03:36.701Z,14.17
2023-04-09T00:06:05.140Z,13.80
2023-04-09T00:08:34.639Z,14.07
2023-04-09T00:11:02.681Z,13.03
2023-04-09T00:16:01.910Z,13.43
2023-04-09T00:18:29.928Z,13.67
2023-04-09T00:20:57.951Z,13.80
2023-04-09T00:23:25.953Z,14.10
2023-04-09T00:25:55.352Z,13.87
2023-04-09T00:28:24.237Z,14.77
2023-04-09T00:30:52.226Z,14.23
2023-04-09T00:33:20.318Z,13.60
2023-04-09T00:35:48.341Z,13.17
2023-04-09T00:38:16.381Z,14.13
2023-04-09T00:40:44.767Z,14.53
2023-04-09T00:43:14.105Z,14.80
2023-04-09T00:45:42.215Z,14.73
2023-04-09T00:48:10.369Z,14.17
2023-04-09T00:50:38.353Z,14.50
2023-04-09T00:53:06.922Z,14.50
2023-04-09T00:55:36.874Z,13.87
2023-04-09T00:58:04.967Z,15.00
2023-04-09T01:00:34.428Z,14.57
2023-04-09T01:03:02.953Z,14.57
2023-04-09T01:05:37.172Z,14.77
2023-04-09T01:08:10.487Z,15.47
2023-04-09T01:10:44.398Z,14.70
2023-04-09T01:13:17.150Z,14.43
2023-04-09T01:15:52.290Z,14.57
2023-04-09T01:18:26.175Z,14.07
2023-04-09T01:21:00.387Z,15.20
2023-04-09T01:23:49.005Z,14.73
2023-04-09T01:26:25.949Z,15.43
2023-04-09T01:28:57.564Z,15.20
2023-04-09T01:31:31.001Z,14.80
2023-04-09T01:34:00.351Z,15.40
2023-04-09T01:36:29.966Z,15.13
2023-04-09T01:38:58.780Z,15.03
2023-04-09T01:41:27.879Z,15.83
2023-04-09T01:43:57.843Z,15.70
2023-04-09T01:46:27.261Z,15.63
2023-04-09T01:48:57.283Z,15.23
2023-04-09T01:51:26.551Z,15.83
2023-04-09T01:53:54.570Z,16.13
2023-04-09T01:56:22.571Z,15.67
2023-04-09T01:58:50.942Z,16.07
2023-04-09T02:01:28.690Z,15.40
2023-04-09T02:04:01.950Z,16.70
2023-04-09T02:06:39.822Z,16.80
2023-04-09T02:09:09.966Z,16.60
2023-04-09T02:11:42.003Z,16.33
2023-04-09T02:14:11.324Z,15.73
2023-04-09T02:16:42.977Z,16.27
2023-04-09T02:19:11.048Z,16.87
2023-04-09T02:21:39.044Z,16.10
2023-04-09T02:24:07.827Z,15.73
2023-04-09T02:26:35.817Z,16.37
2023-04-09T02:29:03.926Z,16.80
2023-04-09T02:31:32.000Z,16.43
2023-04-09T02:34:02.015Z,16.67
2023-04-09T02:36:30.388Z,16.37
2023-04-09T02:38:58.386Z,16.57
2023-04-09T02:41:26.353Z,16.00
2023-04-09T02:43:54.304Z,16.90
2023-04-09T02:46:22.351Z,16.90
2023-04-09T02:48:50.763Z,16.20
2023-04-09T02:51:21.050Z,16.83
2023-04-09T02:53:49.066Z,16.77
2023-04-09T02:56:17.058Z,16.27
2023-04-09T02:58:45.022Z,16.70
2023-04-09T03:01:14.415Z,16.70
2023-04-09T03:03:43.085Z,16.23
2023-04-09T03:06:11.184Z,16.87
2023-04-09T03:08:40.716Z,17.07
2023-04-09T03:11:08.750Z,16.40
2023-04-09T03:13:37.020Z,16.50
2023-04-09T03:16:05.649Z,16.17
2023-04-09T03:18:33.679Z,16.87
2023-04-09T03:21:05.448Z,16.53
2023-04-09T03:23:35.005Z,17.07
2023-04-09T03:26:06.575Z,16.60
2023-04-09T03:28:34.882Z,17.67
2023-04-09T03:31:02.919Z,17.10
2023-04-09T03:33:30.901Z,17.57
2023-04-09T03:35:58.936Z,17.70
2023-04-09T03:38:27.614Z,17.47
2023-04-09T03:40:57.026Z,18.47
2023-04-09T03:43:26.410Z,18.97
2023-04-09T03:45:54.402Z,17.83
2023-04-09T03:48:22.351Z,17.93
2023-04-09T03:50:50.892Z,18.00
2023-04-09T03:53:18.962Z,18.53
2023-04-09T03:55:46.935Z,18.13
2023-04-09T03:58:14.970Z,18.30
2023-04-09T04:00:44.381Z,18.27
2023-04-09T04:03:15.158Z,18.30
2023-04-09T04:05:45.195Z,17.70
2023-04-09T04:08:13.201Z,17.43
2023-04-09T04:10:41.225Z,19.13
2023-04-09T04:13:09.396Z,17.60
2023-04-09T04:15:42.343Z,18.40
2023-04-09T04:18:12.101Z,17.67
2023-04-09T04:20:41.278Z,17.67
2023-04-09T04:23:09.219Z,17.90
2023-04-09T04:25:37.267Z,18.00
2023-04-09T04:28:05.981Z,17.97
2023-04-09T04:30:33.973Z,17.53
2023-04-09T04:33:02.139Z,17.33
2023-04-09T04:35:31.603Z,17.20
2023-04-09T04:37:59.581Z,17.57
2023-04-09T04:40:28.389Z,17.53
2023-04-09T04:42:56.346Z,19.17
2023-04-09T04:45:24.396Z,17.93
2023-04-09T04:47:52.403Z,18.70
2023-04-09T04:50:20.523Z,19.60
2023-04-09T04:52:50.143Z,17.40
2023-04-09T04:55:18.317Z,19.07
2023-04-09T04:57:46.289Z,18.30
2023-04-09T05:00:15.510Z,18.20
2023-04-09T05:02:43.556Z,18.63
2023-04-09T05:05:11.988Z,19.03
2023-04-09T05:07:40.148Z,21.43
2023-04-09T05:10:10.703Z,20.70
2023-04-09T05:12:40.018Z,20.63
2023-04-09T05:15:08.834Z,19.50
2023-04-09T05:17:37.356Z,19.13
2023-04-09T05:20:06.096Z,18.93
2023-04-09T05:22:34.090Z,18.73
2023-04-09T05:25:02.351Z,19.47
2023-04-09T05:27:31.690Z,19.67
2023-04-09T05:30:01.016Z,18.53
2023-04-09T05:32:29.359Z,18.87
2023-04-09T05:34:57.415Z,18.50
2023-04-09T05:37:25.413Z,18.93
2023-04-09T05:39:53.388Z,18.50
2023-04-09T05:42:22.607Z,18.93
2023-04-09T05:44:51.983Z,19.70
2023-04-09T05:47:20.165Z,18.70
2023-04-09T05:49:48.614Z,17.53
2023-04-09T05:52:17.210Z,16.87
2023-04-09T05:54:45.567Z,16.77
2023-04-09T05:57:13.552Z,17.00
2023-04-09T05:59:41.545Z,16.30
2023-04-09T06:02:11.123Z,16.47
2023-04-09T06:04:39.214Z,16.07
2023-04-09T06:07:07.827Z,15.70
2023-04-09T06:09:35.963Z,15.67
2023-04-09T06:12:04.040Z,15.57
2023-04-09T06:14:33.111Z,15.20
2023-04-09T06:17:01.175Z,14.40
2023-04-09T06:19:31.250Z,15.00
2023-04-09T06:21:59.306Z,14.80
2023-04-09T06:24:27.339Z,14.83
2023-04-09T06:26:55.391Z,14.20
2023-04-09T06:29:24.429Z,14.80
2023-04-09T06:31:52.846Z,14.93
2023-04-09T06:34:20.893Z,14.13
2023-04-09T06:36:50.267Z,14.30
2023-04-09T06:39:18.360Z,13.60
2023-04-09T06:41:46.498Z,13.77
2023-04-09T06:44:15.740Z,14.60
2023-04-09T06:46:43.918Z,14.20
2023-04-09T06:49:12.142Z,13.97
2023-04-09T06:51:40.113Z,13.50
2023-04-09T06:54:09.504Z,13.73
2023-04-09T06:56:37.832Z,12.57
2023-04-09T06:59:06.153Z,12.77
2023-04-09T07:01:35.581Z,12.47
2023-04-09T07:04:03.814Z,12.17
2023-04-09T07:06:31.876Z,11.83
2023-04-09T07:09:00.140Z,12.70
2023-04-09T07:11:29.601Z,12.30
2023-04-09T07:13:57.635Z,12.67
2023-04-09T07:16:25.789Z,12.33
2023-04-09T07:18:53.782Z,11.50
2023-04-09T07:21:22.419Z,10.63
2023-04-09T07:23:51.109Z,9.87
2023-04-09T07:26:19.416Z,9.60
2023-04-09T07:28:48.770Z,9.00
2023-04-09T07:31:16.757Z,8.53
2023-04-09T07:33:45.356Z,8.97
2023-04-09T07:36:13.385Z,8.77
2023-04-09T07:38:41.502Z,9.37
2023-04-09T07:41:12.078Z,9.40
2023-04-09T07:43:40.212Z,7.80
2023-04-09T07:46:09.901Z,8.07
2023-04-09T07:48:37.873Z,8.80
2023-04-09T07:51:06.229Z,8.87
2023-04-09T07:53:34.234Z,8.80
2023-04-09T07:56:02.193Z,9.57
2023-04-09T07:58:31.138Z,10.23
2023-04-09T08:00:59.162Z,9.50
2023-04-09T08:03:28.805Z,9.43
2023-04-09T08:05:56.906Z,9.67
2023-04-09T08:08:24.921Z,9.47
2023-04-09T08:10:53.099Z,10.10
2023-04-09T08:13:21.160Z,9.87
2023-04-09T08:15:49.173Z,9.73
2023-04-09T08:18:17.218Z,9.47
2023-04-09T08:20:46.715Z,10.23
2023-04-09T08:23:15.144Z,10.67
2023-04-09T08:25:43.128Z,10.60
2023-04-09T08:28:11.099Z,11.50
2023-04-09T08:30:39.111Z,11.40
2023-04-09T08:33:07.185Z,10.17
2023-04-09T08:35:40.509Z,10.43
2023-04-09T08:38:10.011Z,9.20
2023-04-09T08:40:38.520Z,8.53
2023-04-09T08:43:07.885Z,9.83
2023-04-09T08:45:36.542Z,9.90
2023-04-09T08:48:06.352Z,8.00
2023-04-09T08:50:34.874Z,9.70
2023-04-09T08:53:05.746Z,9.03
2023-04-09T08:55:35.681Z,10.00
2023-04-09T08:58:07.635Z,9.77
2023-04-09T09:00:35.836Z,10.40
2023-04-09T09:03:05.334Z,11.23
2023-04-09T09:05:40.862Z,10.47
2023-04-09T09:08:10.581Z,10.93
2023-04-09T09:10:41.663Z,11.83
2023-04-09T09:13:21.335Z,12.03
2023-04-09T09:15:52.754Z,12.03
2023-04-09T09:18:20.963Z,13.37
2023-04-09T09:20:49.107Z,12.50
2023-04-09T09:23:17.113Z,12.33
2023-04-09T09:25:46.735Z,12.80
2023-04-09T09:28:14.697Z,13.23
2023-04-09T09:30:43.683Z,12.40
2023-04-09T09:33:12.706Z,13.00
2023-04-09T09:35:51.227Z,13.30
2023-04-09T09:38:19.548Z,13.83
2023-04-09T09:40:52.701Z,13.57
2023-04-09T09:43:20.752Z,13.80
2023-04-09T09:45:49.483Z,14.17
2023-04-09T09:48:17.506Z,13.70
2023-04-09T09:50:47.720Z,13.63
2023-04-09T09:53:18.964Z,13.20
2023-04-09T09:55:52.395Z,13.67
2023-04-09T09:58:25.799Z,13.40
2023-04-09T10:00:56.576Z,13.27
2023-04-09T10:03:28.503Z,13.67
2023-04-09T10:05:57.549Z,13.33
2023-04-09T10:08:26.036Z,13.60
2023-04-09T10:10:55.492Z,13.00
2023-04-09T10:13:32.834Z,13.57
2023-04-09T10:16:01.785Z,13.17
2023-04-09T10:18:30.491Z,12.70
2023-04-09T10:21:01.147Z,14.10
2023-04-09T10:23:35.782Z,13.10
2023-04-09T10:26:05.892Z,14.20
2023-04-09T10:28:34.720Z,13.70
2023-04-09T10:31:02.805Z,14.07
2023-04-09T10:33:31.006Z,13.93
2023-04-09T10:36:03.073Z,14.30
2023-04-09T10:38:38.766Z,13.90
2023-04-09T10:41:22.595Z,14.13
2023-04-09T10:43:52.029Z,14.80
2023-04-09T10:46:31.084Z,14.43
2023-04-09T10:49:13.659Z,14.63
2023-04-09T10:51:42.140Z,14.30
2023-04-09T10:54:45.752Z,13.60
2023-04-09T10:57:21.250Z,14.63
2023-04-09T10:59:51.162Z,14.60
2023-04-09T11:02:44.888Z,14.23
2023-04-09T11:05:21.598Z,13.70
2023-04-09T11:07:55.597Z,14.77
2023-04-09T11:10:23.705Z,13.53
2023-04-09T11:12:53.774Z,14.13
2023-04-09T11:15:22.436Z,14.53
2023-04-09T11:17:51.157Z,13.80
2023-04-09T11:20:22.723Z,13.60
2023-04-09T11:22:51.876Z,13.40
2023-04-09T11:25:21.484Z,13.97
2023-04-09T11:27:49.955Z,14.33
2023-04-09T11:30:19.513Z,13.20
2023-04-09T11:32:48.552Z,12.63
2023-04-09T11:35:19.440Z,12.43
2023-04-09T11:37:47.934Z,12.20
2023-04-09T11:40:17.803Z,12.33
2023-04-09T11:42:46.197Z,12.37
2023-04-09T11:45:17.308Z,12.43
2023-04-09T11:47:47.622Z,12.00
2023-04-09T11:50:16.868Z,12.40
2023-04-09T11:52:46.120Z,12.80
2023-04-09T11:55:24.809Z,12.67
2023-04-09T11:57:54.506Z,12.63
2023-04-09T12:00:24.729Z,12.27
2023-04-09T12:03:02.732Z,12.23
2023-04-09T12:05:33.307Z,12.70
2023-04-09T12:08:02.495Z,12.13
2023-04-09T12:10:32.357Z,12.40
2023-04-09T12:13:04.257Z,12.10
2023-04-09T12:15:35.284Z,11.83
2023-04-09T12:18:05.530Z,12.10
2023-04-09T12:20:35.667Z,12.43
2023-04-09T12:23:06.185Z,12.23
2023-04-09T12:25:36.926Z,13.23
2023-04-09T12:28:05.718Z,12.07
2023-04-09T12:30:34.197Z,13.00
2023-04-09T12:33:04.680Z,12.20
2023-04-09T12:35:32.949Z,12.53
2023-04-09T12:38:04.817Z,12.73
2023-04-09T12:40:32.890Z,12.80
2023-04-09T12:43:01.434Z,13.77
2023-04-09T12:45:30.529Z,13.30
2023-04-09T12:47:58.675Z,12.60
2023-04-09T12:50:28.541Z,12.43
2023-04-09T12:52:56.532Z,13.30
2023-04-09T12:55:24.584Z,13.43
2023-04-09T12:57:52.670Z,13.37
2023-04-09T13:02:56.628Z,52.67
2023-04-09T13:05:24.857Z,16.67
2023-04-09T13:07:54.261Z,21.13
2023-04-09T13:10:22.335Z,20.13
2023-04-09T13:12:51.452Z,18.07
2023-04-09T13:15:21.230Z,14.30
2023-04-09T13:17:49.286Z,13.07
2023-04-09T13:20:17.568Z,11.67
2023-04-09T13:22:48.749Z,12.93
2023-04-09T13:25:18.094Z,11.30
2023-04-09T13:27:46.628Z,12.83
2023-04-09T13:30:14.622Z,11.80
2023-04-09T13:32:42.793Z,11.53
2023-04-09T13:35:11.483Z,10.60
2023-04-09T13:37:39.569Z,11.23
2023-04-09T13:40:09.903Z,11.17
2023-04-09T13:42:39.336Z,11.83
2023-04-09T13:45:08.318Z,11.80
2023-04-09T13:47:36.661Z,10.63
2023-04-09T13:50:05.395Z,9.90
2023-04-09T13:52:33.963Z,10.20
2023-04-09T13:55:03.728Z,10.37
2023-04-09T13:57:31.760Z,11.67
2023-04-09T14:00:04.377Z,11.03
2023-04-09T14:02:32.685Z,10.97
2023-04-09T14:05:03.112Z,11.20
2023-04-09T14:07:31.304Z,10.07
2023-04-09T14:10:00.063Z,9.73
2023-04-09T14:12:28.148Z,10.23
2023-04-09T14:14:56.294Z,9.70
2023-04-09T14:17:26.217Z,10.03
2023-04-09T14:19:54.254Z,10.43
2023-04-09T14:22:22.268Z,9.90
2023-04-09T14:24:51.116Z,10.40
2023-04-09T14:27:19.174Z,10.40
2023-04-09T14:29:47.394Z,11.20
2023-04-09T14:32:15.481Z,10.37
2023-04-09T14:34:44.861Z,10.13
2023-04-09T14:37:13.340Z,9.83
2023-04-09T14:39:41.354Z,9.17
2023-04-09T14:42:09.926Z,8.90
2023-04-09T14:44:37.971Z,9.77
2023-04-09T14:47:06.435Z,8.00
2023-04-09T14:49:34.553Z,7.70
2023-04-09T14:52:03.980Z,8.47
2023-04-09T14:54:33.544Z,8.37
2023-04-09T14:57:02.802Z,9.10
2023-04-09T14:59:30.799Z,8.93
2023-04-09T15:01:58.921Z,8.40
2023-04-09T15:04:27.343Z,8.73
2023-04-09T15:06:55.804Z,9.10
2023-04-09T15:09:25.317Z,8.37
2023-04-09T15:11:54.062Z,8.90
2023-04-09T15:14:23.765Z,8.93
2023-04-09T15:16:55.736Z,8.47
2023-04-09T15:19:23.825Z,9.00
2023-04-09T15:21:51.808Z,7.93
2023-04-09T15:24:19.841Z,7.30
2023-04-09T15:26:49.726Z,7.10
2023-04-09T15:29:18.305Z,9.70
2023-04-09T15:31:46.338Z,7.07
2023-04-09T15:34:14.345Z,7.63
2023-04-09T15:36:42.349Z,6.93
2023-04-09T15:39:10.314Z,7.83
2023-04-09T15:41:38.961Z,7.53
2023-04-09T15:44:08.996Z,7.43
2023-04-09T15:46:36.935Z,7.33
2023-04-09T15:49:05.629Z,6.73
2023-04-09T15:51:33.600Z,6.73
2023-04-09T15:54:02.128Z,6.97
2023-04-09T15:56:30.065Z,6.90
2023-04-09T15:58:58.801Z,6.97
2023-04-09T16:01:28.298Z,6.87
2023-04-09T16:03:56.458Z,6.47
2023-04-09T16:06:24.796Z,6.60
2023-04-09T16:08:53.029Z,6.80
2023-04-09T16:11:21.403Z,6.80
2023-04-09T16:13:49.956Z,7.20
2023-04-09T16:16:17.980Z,6.57
2023-04-09T16:18:48.336Z,6.70
2023-04-09T16:21:16.698Z,7.63
2023-04-09T16:23:44.698Z,6.67
2023-04-09T16:26:12.785Z,7.10
2023-04-09T16:28:40.876Z,7.10
2023-04-09T16:31:09.114Z,6.03
2023-04-09T16:33:37.084Z,5.77
2023-04-09T16:36:07.141Z,5.60
2023-04-09T16:38:35.164Z,5.40
2023-04-09T16:41:03.142Z,5.83
2023-04-09T16:43:32.664Z,5.53
2023-04-09T16:46:00.765Z,5.60
2023-04-09T16:48:28.745Z,5.57
2023-04-09T16:50:56.678Z,5.63
2023-04-09T16:53:26.687Z,5.87
2023-04-09T16:55:55.164Z,6.33
2023-04-09T16:58:23.167Z,5.80
2023-04-09T17:00:52.027Z,5.87
2023-04-09T17:03:20.374Z,6.73
2023-04-09T17:05:49.593Z,9.20
2023-04-09T17:08:18.170Z,6.70
2023-04-09T17:10:47.630Z,5.80
2023-04-09T17:13:15.800Z,5.90
2023-04-09T17:15:45.052Z,5.70
2023-04-09T17:18:13.139Z,6.10
2023-04-09T17:20:41.626Z,6.60
2023-04-09T17:23:09.701Z,5.97
2023-04-09T17:25:37.697Z,5.97
2023-04-09T17:28:07.376Z,5.60
2023-04-09T17:30:36.128Z,6.27
2023-04-09T17:33:04.960Z,6.67
2023-04-09T17:35:33.063Z,6.67
2023-04-09T17:38:01.736Z,7.40
2023-04-09T17:40:29.884Z,7.60
2023-04-09T17:42:57.901Z,7.40
2023-04-09T17:45:27.694Z,7.40
2023-04-09T17:47:55.702Z,7.20
2023-04-09T17:50:23.725Z,7.20
2023-04-09T17:52:51.680Z,7.07
2023-04-09T17:55:19.734Z,6.70
2023-04-09T17:57:48.220Z,6.63
2023-04-09T18:00:16.976Z,6.70
2023-04-09T18:02:46.994Z,6.00
2023-04-09T18:05:15.449Z,7.10
2023-04-09T18:07:43.913Z,7.17
2023-04-09T18:10:12.499Z,7.77
2023-04-09T18:12:40.628Z,7.13
2023-04-09T18:15:09.431Z,7.33
2023-04-09T18:17:37.461Z,7.20
2023-04-09T18:20:07.879Z,7.70
2023-04-09T18:22:37.196Z,8.03
2023-04-09T18:25:06.016Z,7.27
2023-04-09T18:27:34.039Z,7.63
2023-04-09T18:30:02.049Z,7.57
2023-04-09T18:32:30.284Z,7.83
2023-04-09T18:34:58.480Z,7.60
2023-04-09T18:37:28.343Z,9.07
2023-04-09T18:39:56.671Z,9.30
2023-04-09T18:42:24.635Z,9.60
2023-04-09T18:44:52.563Z,9.33
2023-04-09T18:47:21.076Z,10.50
2023-04-09T18:49:49.161Z,10.17
2023-04-09T18:52:17.221Z,10.43
2023-04-09T18:54:46.708Z,9.67
2023-04-09T18:57:14.659Z,10.40
2023-04-09T18:59:42.977Z,10.37
2023-04-09T19:02:11.402Z,9.73
2023-04-09T19:04:41.881Z,9.83
2023-04-09T19:07:10.239Z,10.17
2023-04-09T19:09:38.635Z,10.70
2023-04-09T19:12:08.619Z,11.17
2023-04-09T19:14:37.388Z,11.53
2023-04-09T19:17:05.361Z,11.17
2023-04-09T19:19:33.822Z,10.73
2023-04-09T19:22:01.942Z,10.83
2023-04-09T19:24:30.625Z,11.97
2023-04-09T19:27:01.135Z,11.33
2023-04-09T19:29:30.441Z,11.77
2023-04-09T19:31:58.587Z,12.00
2023-04-09T19:34:26.695Z,11.20
2023-04-09T19:36:54.874Z,11.70
2023-04-09T19:39:22.929Z,11.60
2023-04-09T19:41:51.089Z,11.20
2023-04-09T19:44:19.110Z,11.93
2023-04-09T19:46:48.549Z,11.60
2023-04-09T19:49:17.026Z,11.43
2023-04-09T19:51:45.013Z,11.37
2023-04-09T19:54:13.058Z,11.70
2023-04-09T19:56:42.378Z,12.07
2023-04-09T19:59:10.475Z,11.73
2023-04-09T20:01:39.026Z,10.77
2023-04-09T20:04:09.264Z,11.83
2023-04-09T20:06:37.341Z,12.07
2023-04-09T20:09:05.680Z,11.83
2023-04-09T20:11:33.793Z,11.67
2023-04-09T20:14:04.854Z,11.80
2023-04-09T20:16:32.911Z,11.80
2023-04-09T20:19:00.932Z,12.50
2023-04-09T20:21:30.272Z,12.00
2023-04-09T20:23:58.222Z,11.00
2023-04-09T20:26:26.643Z,11.53
2023-04-09T20:28:54.788Z,11.87
2023-04-09T20:31:23.140Z,12.43
2023-04-09T20:33:51.112Z,12.03
2023-04-09T20:36:20.407Z,12.13
2023-04-09T20:38:50.901Z,12.70
2023-04-09T20:41:19.075Z,12.63
2023-04-09T20:43:47.095Z,12.57
2023-04-09T20:46:15.128Z,12.60
2023-04-09T20:48:43.164Z,12.80
2023-04-09T20:51:12.764Z,12.80
2023-04-09T20:53:40.722Z,12.60
2023-04-09T20:56:10.244Z,13.47
2023-04-09T20:58:38.922Z,14.17
2023-04-09T21:01:09.359Z,13.40
2023-04-09T21:03:38.608Z,14.03
2023-04-09T21:06:08.224Z,14.23
2023-04-09T21:08:36.379Z,13.67
2023-04-09T21:11:04.523Z,13.90
2023-04-09T21:13:46.515Z,14.17
2023-04-09T21:16:23.250Z,14.33
2023-04-09T21:18:51.508Z,14.47
2023-04-09T21:21:19.804Z,13.97
2023-04-09T21:23:47.797Z,14.07
2023-04-09T21:26:15.811Z,15.10
2023-04-09T21:28:46.238Z,13.40
2023-04-09T21:31:15.844Z,14.00
2023-04-09T21:33:43.948Z,14.50
2023-04-09T21:36:12.000Z,15.13
2023-04-09T21:38:40.043Z,14.47
2023-04-09T21:41:08.881Z,15.67
2023-04-09T21:43:38.380Z,15.50
2023-04-09T21:46:08.048Z,15.73
2023-04-09T21:48:37.253Z,15.53
2023-04-09T21:51:10.910Z,14.77
2023-04-09T21:53:39.094Z,15.33
2023-04-09T21:56:07.811Z,13.83
2023-04-09T21:58:35.795Z,13.50
2023-04-09T22:01:03.803Z,13.70
2023-04-09T22:03:33.999Z,13.47
2023-04-09T22:06:02.150Z,13.80
2023-04-09T22:08:30.624Z,13.47
2023-04-09T22:10:58.540Z,13.30
2023-04-09T22:13:27.273Z,13.33
2023-04-09T22:15:56.016Z,13.17
2023-04-09T22:18:24.062Z,13.53
2023-04-09T22:20:53.421Z,14.80
2023-04-09T22:23:21.366Z,14.87
2023-04-09T22:25:49.345Z,14.87
2023-04-09T22:28:17.548Z,14.73
2023-04-09T22:30:45.982Z,15.23
2023-04-09T22:33:13.971Z,14.93
2023-04-09T22:35:41.938Z,14.83
2023-04-09T22:38:11.362Z,15.77
2023-04-09T22:40:40.796Z,16.33
2023-04-09T22:43:08.794Z,15.33
2023-04-09T22:45:36.810Z,15.33
2023-04-09T22:48:05.550Z,16.20
2023-04-09T22:50:33.555Z,16.23
2023-04-09T22:53:02.368Z,16.97
2023-04-09T22:55:31.884Z,16.30
2023-04-09T22:58:00.061Z,17.23
2023-04-09T23:00:28.222Z,17.10
2023-04-09T23:02:56.324Z,16.67
2023-04-09T23:05:24.760Z,17.00
2023-04-09T23:07:52.775Z,16.93
2023-04-09T23:10:21.416Z,17.20
2023-04-09T23:12:50.771Z,16.80
2023-04-09T23:15:19.043Z,17.47
2023-04-09T23:17:49.894Z,17.17
2023-04-09T23:20:18.343Z,17.03
2023-04-09T23:22:48.217Z,16.00
2023-04-09T23:25:16.670Z,16.87
2023-04-09T23:27:44.838Z,16.93
2023-04-09T23:30:17.345Z,17.27
2023-04-09T23:32:45.773Z,17.53
2023-04-09T23:35:14.141Z,17.47
2023-04-09T23:37:43.417Z,17.63
2023-04-09T23:40:12.143Z,16.30
2023-04-09T23:42:40.593Z,18.37
2023-04-09T23:45:09.565Z,18.93
2023-04-09T23:47:39.919Z,18.17
2023-04-09T23:50:09.173Z,18.30
2023-04-09T23:52:38.331Z,18.77
2023-04-09T23:55:09.334Z,18.77
2023-04-09T23:57:37.749Z,18.33
